Hovedside
METAR-TAF:

METAR-TAF

Lufthavner :

Tongareva, Cookøyene

breddegrad: 9-00-52S, lengdegrad: 158-01-57W, høyde over havet: 2 m

Gjeldene værobservasjon

Denne rapporten ble laget for 1 time og 2 minutter siden, klokken 01:00 UTC
Vind 9 kt fra Øst
Temperatur 30°C
Luftfuktighet 75%
Trykk 1007 hPa

METAR: NCPY 200100Z AUTO 09009KT //// ////// 30/25 Q1007

Tid: 16:02 (02:02 UTC)


TAF: fraværende

Værobservasjoner og værvarsel for over 4000 flyplasser (METAR- og TAF-rapporter).

Tilgjengelige stasjoner er representert av de røde og gule prikkene på kartet.

Hold musepekeren over prikken for å se navnet på stasjonen.

Klikk så for å se værobservasjoner og -varsler.

For å forandre kartet kan du klikke på den grønne knappen med svart kryss for å zoome inn, på den grønne knappen med strek for å zoome ut, eller på de grønne pilene for å se tilstøtende kart.


METAR-TAF: